Terminal Aerodrome Forecast
Issued by NWS Blacksburg, VA

Current Version | Previous Version | Text Only | Print | Product List | Glossary Off
Versions: 1 2 3 4 5 6 7 8 9 10 11 12 13 14 15 16

000
FTUS41 KRNK 301133
TAFBLF
TAF
KBLF 301133Z 3012/3112 00000KT 4SM BR SCT001
      TEMPO 3012/3013 2SM BR BKN001
     FM301600 34006KT P6SM BKN035
     FM310000 00000KT P6SM SCT045 BKN250
     FM310500 00000KT 2SM BR SCT250
     FM310800 00000KT 1/4SM FG OVC001=

USA.gov is the U.S. government's official web portal to all federal, state and local government web resources and services.